Stowe, Vermont
Current Conditions -  °F | °C
As of 7:54 AM on Monday 22 Dec 2014 (Local Time) from KMVL Reporting Station
Overcast Overcast  
Wind Chill: -4°   Ceiling: 3200
Heat Index: -4°   Visibility: 7mi
Dew Point: -7°   Wind: 0mph
Humidity: 84%   Direction: NA
Pressure: 30.38"   Gusts: NA
Location:  44.47°N, 72.68°W
Report Text: KMVL 221254Z AUTO 00000KT 7SM OVC032 M04/M07 A3038 RMK AO2 SLP301 T10441067 TSNO
Loading
Personal Weather Stations






























Interactive Weather Map New forecast layout! Learn more

10-Day Weather Forecast

Advertisements
Track Severe Weather on mobile